Погода Ранчо-Палос-Вердесна неделю

Калифорния, США

01 - 07 сентября
  • 01сентября
    Сегодня
    +17°
    +24°
    Ясно и безоблачно
    ВремяПогодаТемператураВлажностьДавлениеВетер, м/сВероятность осадков
    02:00Ясно и безоблачно+19°C83 %755 мм3.0 м/с2 %
    05:00Ясно и безоблачно+18°C82 %755 мм2.8 м/с2 %
    08:00Ясно и безоблачно+19°C89 %755 мм2.0 м/с2 %
    11:00Ясно и безоблачно+23°C74 %756 мм3.4 м/с2 %
    14:00Ясно и безоблачно+24°C67 %756 мм5.0 м/с2 %
    17:00Ясно и безоблачно+22°C66 %755 мм5.6 м/с2 %
    20:00Ясно и безоблачно+20°C73 %754 мм5.6 м/с2 %
    23:00Ясно и безоблачно+20°C78 %756 мм4.5 м/с2 %
  • 02сентября
    Среда
    +18°
    +25°
    Ясно и безоблачно
    ВремяПогодаТемператураВлажностьДавлениеВетер, м/сВероятность осадков
    02:00Ясно и безоблачно+19°C81 %756 мм2.9 м/с2 %
    05:00Ясно и безоблачно+17°C82 %755 мм1.2 м/с2 %
    08:00Ясно и безоблачно+19°C77 %756 мм0.9 м/с2 %
    11:00Ясно и безоблачно+23°C74 %757 мм2.6 м/с2 %
    14:00Ясно и безоблачно+24°C71 %756 мм3.7 м/с2 %
    17:00Ясно и безоблачно+24°C73 %754 мм4.4 м/с2 %
    20:00Ясно и безоблачно+21°C74 %754 мм5.1 м/с2 %
    23:00Ясно и безоблачно+20°C85 %755 мм3.4 м/с2 %
  • 03сентября
    Четверг
    +18°
    +25°
    Ясно и безоблачно
    ВремяПогодаТемператураВлажностьДавлениеВетер, м/сВероятность осадков
    02:00Ясно и безоблачно+19°C85 %755 мм1.2 м/с2 %
    05:00Практически безоблачно+19°C86 %754 мм1.2 м/с2 %
    08:00Ясно и безоблачно+20°C84 %754 мм1.7 м/с2 %
    11:00Ясно и безоблачно+24°C73 %755 мм2.5 м/с2 %
    14:00Ясно и безоблачно+25°C76 %754 мм4.4 м/с2 %
    17:00Ясно и безоблачно+23°C78 %753 мм4.9 м/с2 %
    20:00Ясно и безоблачно+21°C79 %752 мм3.5 м/с2 %
    23:00Ясно и безоблачно+20°C83 %753 мм1.3 м/с2 %
  • 04сентября
    Пятница
    +18°
    +25°
    Ясно и безоблачно
    ВремяПогодаТемператураВлажностьДавлениеВетер, м/сВероятность осадков
    02:00Практически безоблачно+19°C83 %753 мм0.6 м/с2 %
    05:00Ясно и безоблачно+19°C83 %753 мм2.6 м/с2 %
    08:00Ясно и безоблачно+20°C81 %754 мм2.1 м/с2 %
    11:00Ясно и безоблачно+24°C72 %754 мм3.7 м/с2 %
    14:00Ясно и безоблачно+25°C74 %753 мм2.4 м/с2 %
    17:00Ясно и безоблачно+23°C74 %753 мм3.7 м/с2 %
    20:00Ясно и безоблачно+21°C81 %753 мм4.6 м/с2 %
    23:00Ясно и безоблачно+20°C82 %754 мм2.2 м/с2 %
  • 05сентября
    Суббота
    +20°
    +27°
    Ясно и безоблачно
    ВремяПогодаТемператураВлажностьДавлениеВетер, м/сВероятность осадков
    02:00Ясно и безоблачно+20°C84 %754 мм1.0 м/с3 %
    05:00Ясно и безоблачно+19°C87 %753 мм0.8 м/с7 %
    08:00Ясно и безоблачно+21°C87 %754 мм0.7 м/с13 %
    11:00Ясно и безоблачно+25°C76 %755 мм1.5 м/с14 %
    14:00Ясно и безоблачно+27°C72 %754 мм3.6 м/с16 %
    17:00Ясно и безоблачно+25°C77 %753 мм5.1 м/с13 %
    20:00Ясно и безоблачно+22°C78 %753 мм5.0 м/с18 %
    23:00Практически безоблачно+22°C74 %754 мм4.5 м/с21 %
  • 06сентября
    Воскресенье
    +18°
    +26°
    Ясно и безоблачно
    ВремяПогодаТемператураВлажностьДавлениеВетер, м/сВероятность осадков
    05:00Ясно и безоблачно+21°C81 %753 мм3.1 м/с25 %
    11:00Ясно и безоблачно+26°C75 %754 мм3.4 м/с29 %
    17:00Ясно и безоблачно+25°C60 %753 мм4.3 м/с29 %
    23:00Ясно и безоблачно+21°C78 %753 мм3.4 м/с22 %
  • 07сентября
    Понедельник
    +18°
    +26°
    Ясно и безоблачно
    ВремяПогодаТемператураВлажностьДавлениеВетер, м/сВероятность осадков
    05:00Ясно и безоблачно+19°C86 %753 мм2.2 м/с17 %
    11:00Ясно и безоблачно+24°C69 %754 мм2.6 м/с20 %
    17:00Ясно и безоблачно+24°C68 %752 мм5.1 м/с17 %
    23:00Практически безоблачно+20°C83 %753 мм2.8 м/с15 %
Мы используем cookies
Соглашаюсь